CPA371 VHHH-EHAM
Flight info
| Callsign | CPA371 |
|---|---|
| Flight time | N/A |
| Altitude | 34100 |
| Route | BEKOL A461 SHL W22 TEPID W24 OSNOV G586 QP B330 ELKAL W179 IGNAK/K0932S1010 W179 WFX/K0920S1040 W179 OMBON W195 VIDEK/K0926S1010 W195 LAXAL/K0915S1040 W195 IDOPA W197 ANDIM B215 IBANO G470 AKLAS W192 FKG A368 SARIN/K0915F340 N161 UNABO/K0902F360 N161 GASBI/N0490F360 N161 LEYLA N644 ADEKI DCT BADIR/N0485F380 DCT LAGAS DCT FOQUS DCT SARPI UM10 OLUPO UL851 KARDE UN644 SIN UW90 INB UL746 ODERO DCT OPT DCT SOKRU DCT DEGET DCT BEGLA DCT DITIS DCT VARIK DCT KATCE DCT NORKU |
| Aircraft | A35K/H-SDE2E3GHIJ3J4J5LM1ORWXY/LB1D1 |
Departure
| Time | N/A |
|---|---|
| Airport | Hong Kong International Airport (VHHH) |
Arrival
| Time | 2026-04-28 16:33 |
|---|---|
| Airport | Amsterdam Airport Schiphol (EHAM) |
| Time | Latitude | Longitude | Altitude | Speed | Heading |
|---|---|---|---|---|---|
| 2026-04-28 14:40 | 46.82169 | 20.30906 | 34135 ft | 402 kts | 296° |
| 2026-04-28 14:41 | 46.84619 | 20.23606 | 34127 ft | 401 kts | 295° |
| 2026-04-28 14:41 | 46.87071 | 20.16280 | 34126 ft | 400 kts | 295° |
| 2026-04-28 14:42 | 46.89517 | 20.08951 | 34126 ft | 400 kts | 295° |
| 2026-04-28 14:42 | 46.91950 | 20.01637 | 34144 ft | 400 kts | 295° |
| 2026-04-28 14:43 | 46.94371 | 19.94341 | 34130 ft | 400 kts | 295° |
| 2026-04-28 14:43 | 46.96395 | 19.88227 | 34131 ft | 400 kts | 295° |
| 2026-04-28 14:44 | 46.98826 | 19.80862 | 34130 ft | 400 kts | 295° |
| 2026-04-28 14:44 | 47.01237 | 19.73538 | 34130 ft | 400 kts | 295° |
| 2026-04-28 14:45 | 47.03662 | 19.66152 | 34131 ft | 400 kts | 295° |
| 2026-04-28 14:45 | 47.06065 | 19.58811 | 34131 ft | 400 kts | 295° |
| 2026-04-28 14:46 | 47.08463 | 19.51466 | 34132 ft | 400 kts | 295° |
| 2026-04-28 14:46 | 47.10878 | 19.44046 | 34135 ft | 400 kts | 295° |
| 2026-04-28 14:47 | 47.13269 | 19.36678 | 34135 ft | 400 kts | 295° |
| 2026-04-28 14:47 | 47.15652 | 19.29311 | 34132 ft | 400 kts | 295° |
| 2026-04-28 14:48 | 47.18031 | 19.21935 | 34137 ft | 400 kts | 295° |
| 2026-04-28 14:48 | 47.20422 | 19.14504 | 34133 ft | 400 kts | 294° |
| 2026-04-28 14:49 | 47.22791 | 19.07117 | 34134 ft | 400 kts | 294° |
| 2026-04-28 14:49 | 47.25162 | 18.99706 | 34132 ft | 400 kts | 294° |
| 2026-04-28 14:50 | 47.27525 | 18.92295 | 34130 ft | 400 kts | 294° |
| 2026-04-28 14:50 | 47.29885 | 18.84874 | 34133 ft | 401 kts | 294° |
| 2026-04-28 14:51 | 47.32247 | 18.77423 | 34134 ft | 401 kts | 294° |
| 2026-04-28 14:51 | 47.34596 | 18.69992 | 34136 ft | 401 kts | 294° |
| 2026-04-28 14:52 | 47.36951 | 18.62520 | 34136 ft | 401 kts | 294° |
| 2026-04-28 14:52 | 47.39285 | 18.55096 | 34136 ft | 400 kts | 294° |
| 2026-04-28 14:53 | 47.41626 | 18.47623 | 34137 ft | 401 kts | 294° |
| 2026-04-28 14:53 | 47.43967 | 18.40129 | 34142 ft | 400 kts | 294° |
| 2026-04-28 14:54 | 47.46294 | 18.32661 | 34142 ft | 400 kts | 294° |
| 2026-04-28 14:54 | 47.48614 | 18.25190 | 34145 ft | 401 kts | 294° |
| 2026-04-28 14:55 | 47.50939 | 18.17682 | 34149 ft | 402 kts | 293° |
| 2026-04-28 14:55 | 47.53260 | 18.10164 | 34149 ft | 403 kts | 293° |
| 2026-04-28 14:56 | 47.55582 | 18.02618 | 34148 ft | 403 kts | 293° |
| 2026-04-28 14:56 | 47.57905 | 17.95048 | 34154 ft | 404 kts | 293° |
| 2026-04-28 14:57 | 47.60225 | 17.87464 | 34153 ft | 403 kts | 293° |
| 2026-04-28 14:57 | 47.62533 | 17.79900 | 34157 ft | 404 kts | 293° |
| 2026-04-28 14:58 | 47.64833 | 17.72333 | 34157 ft | 404 kts | 292° |
| 2026-04-28 14:58 | 47.67132 | 17.64749 | 34156 ft | 403 kts | 292° |
| 2026-04-28 14:59 | 47.69435 | 17.57127 | 34155 ft | 403 kts | 292° |
| 2026-04-28 14:59 | 47.71719 | 17.49545 | 34151 ft | 403 kts | 292° |
| 2026-04-28 15:00 | 47.74008 | 17.41925 | 34131 ft | 405 kts | 292° |
| 2026-04-28 15:00 | 47.76306 | 17.34252 | 34158 ft | 404 kts | 292° |
| 2026-04-28 15:01 | 47.78568 | 17.26677 | 34153 ft | 402 kts | 292° |
| 2026-04-28 15:01 | 47.80828 | 17.19084 | 34152 ft | 401 kts | 292° |
| 2026-04-28 15:02 | 47.83308 | 17.11637 | 34121 ft | 403 kts | 299° |
| 2026-04-28 15:02 | 47.86680 | 17.04905 | 34119 ft | 407 kts | 304° |
| 2026-04-28 15:03 | 47.90277 | 16.98366 | 34124 ft | 408 kts | 305° |
| 2026-04-28 15:03 | 47.93900 | 16.91848 | 34119 ft | 408 kts | 305° |
| 2026-04-28 15:04 | 47.97508 | 16.85315 | 34124 ft | 408 kts | 305° |
| 2026-04-28 15:04 | 48.01090 | 16.78787 | 34124 ft | 408 kts | 305° |
| 2026-04-28 15:05 | 48.04673 | 16.72233 | 34129 ft | 408 kts | 305° |
| 2026-04-28 15:05 | 48.08266 | 16.65644 | 34131 ft | 408 kts | 305° |
| 2026-04-28 15:06 | 48.11840 | 16.59075 | 34132 ft | 408 kts | 305° |
| 2026-04-28 15:06 | 48.15434 | 16.52453 | 34130 ft | 409 kts | 305° |
| 2026-04-28 15:07 | 48.19012 | 16.45845 | 34130 ft | 409 kts | 305° |
| 2026-04-28 15:07 | 48.22579 | 16.39241 | 34128 ft | 411 kts | 304° |
| 2026-04-28 15:08 | 48.26202 | 16.32516 | 34131 ft | 412 kts | 305° |
| 2026-04-28 15:08 | 48.29794 | 16.25835 | 34132 ft | 412 kts | 304° |
| 2026-04-28 15:09 | 48.33375 | 16.19158 | 34135 ft | 412 kts | 304° |
| 2026-04-28 15:09 | 48.36974 | 16.12428 | 34135 ft | 412 kts | 304° |
| 2026-04-28 15:10 | 48.40558 | 16.05709 | 34154 ft | 414 kts | 305° |
| 2026-04-28 15:10 | 48.44168 | 15.98923 | 34136 ft | 418 kts | 305° |
| 2026-04-28 15:11 | 48.47819 | 15.92045 | 34137 ft | 418 kts | 305° |
| 2026-04-28 15:11 | 48.51431 | 15.85224 | 34141 ft | 418 kts | 305° |
| 2026-04-28 15:12 | 48.55066 | 15.78344 | 34140 ft | 418 kts | 304° |
| 2026-04-28 15:12 | 48.58674 | 15.71496 | 34139 ft | 418 kts | 304° |
| 2026-04-28 15:13 | 48.62294 | 15.64607 | 34139 ft | 418 kts | 304° |
| 2026-04-28 15:13 | 48.65909 | 15.57708 | 34142 ft | 418 kts | 304° |
| 2026-04-28 15:14 | 48.69504 | 15.50831 | 34143 ft | 418 kts | 304° |
| 2026-04-28 15:14 | 48.73122 | 15.43888 | 34144 ft | 423 kts | 305° |
| 2026-04-28 15:15 | 48.76790 | 15.36833 | 34131 ft | 425 kts | 305° |
| 2026-04-28 15:15 | 48.80447 | 15.29784 | 34146 ft | 425 kts | 305° |
| 2026-04-28 15:16 | 48.84101 | 15.22722 | 34132 ft | 425 kts | 305° |
| 2026-04-28 15:16 | 48.87731 | 15.15687 | 34150 ft | 425 kts | 305° |
| 2026-04-28 15:17 | 48.91395 | 15.08595 | 34150 ft | 426 kts | 305° |
| 2026-04-28 15:17 | 48.95115 | 15.01638 | 34141 ft | 426 kts | 306° |
| 2026-04-28 15:18 | 48.98883 | 14.94638 | 34137 ft | 426 kts | 306° |
| 2026-04-28 15:18 | 49.02623 | 14.87636 | 34141 ft | 429 kts | 306° |
| 2026-04-28 15:19 | 49.06381 | 14.80556 | 34142 ft | 431 kts | 306° |
| 2026-04-28 15:19 | 49.10154 | 14.73425 | 34143 ft | 431 kts | 306° |
| 2026-04-28 15:20 | 49.13904 | 14.66318 | 34152 ft | 431 kts | 306° |
| 2026-04-28 15:20 | 49.17640 | 14.59218 | 34148 ft | 431 kts | 306° |
| 2026-04-28 15:21 | 49.21401 | 14.52052 | 34149 ft | 431 kts | 306° |
| 2026-04-28 15:21 | 49.25156 | 14.44879 | 34134 ft | 431 kts | 306° |
| 2026-04-28 15:22 | 49.28873 | 14.37756 | 34135 ft | 431 kts | 306° |
| 2026-04-28 15:22 | 49.32628 | 14.30543 | 34149 ft | 432 kts | 306° |
| 2026-04-28 15:23 | 49.36384 | 14.23309 | 34151 ft | 433 kts | 306° |
| 2026-04-28 15:23 | 49.40129 | 14.16079 | 34154 ft | 433 kts | 306° |
| 2026-04-28 15:24 | 49.43862 | 14.08851 | 34154 ft | 433 kts | 305° |
| 2026-04-28 15:24 | 49.47617 | 14.01560 | 34159 ft | 433 kts | 305° |
| 2026-04-28 15:25 | 49.51348 | 13.94296 | 34147 ft | 434 kts | 305° |
| 2026-04-28 15:25 | 49.55088 | 13.86992 | 34149 ft | 435 kts | 305° |
| 2026-04-28 15:26 | 49.58824 | 13.79676 | 34150 ft | 435 kts | 305° |
| 2026-04-28 15:26 | 49.62573 | 13.72316 | 34166 ft | 434 kts | 305° |
| 2026-04-28 15:27 | 49.66289 | 13.65001 | 34165 ft | 433 kts | 305° |
| 2026-04-28 15:27 | 49.69986 | 13.57703 | 34158 ft | 434 kts | 305° |
| 2026-04-28 15:28 | 49.73699 | 13.50349 | 34160 ft | 435 kts | 305° |
| 2026-04-28 15:28 | 49.77409 | 13.42985 | 34157 ft | 435 kts | 305° |
| 2026-04-28 15:29 | 49.80507 | 13.36818 | 34156 ft | 435 kts | 305° |
| 2026-04-28 15:29 | 49.84832 | 13.28187 | 34162 ft | 435 kts | 305° |
| 2026-04-28 15:30 | 49.87910 | 13.22025 | 34162 ft | 435 kts | 305° |
| 2026-04-28 15:30 | 49.91624 | 13.14572 | 34177 ft | 434 kts | 305° |
| 2026-04-28 15:31 | 49.95292 | 13.07190 | 34179 ft | 433 kts | 305° |
| 2026-04-28 15:31 | 49.98963 | 12.99783 | 34184 ft | 433 kts | 304° |
| 2026-04-28 15:32 | 50.02623 | 12.92376 | 34183 ft | 433 kts | 304° |
| 2026-04-28 15:32 | 50.06297 | 12.84920 | 34174 ft | 433 kts | 304° |
| 2026-04-28 15:33 | 50.09947 | 12.77490 | 34187 ft | 434 kts | 304° |
| 2026-04-28 15:33 | 50.13628 | 12.69979 | 34183 ft | 434 kts | 304° |
| 2026-04-28 15:34 | 50.17278 | 12.62508 | 34181 ft | 434 kts | 304° |
| 2026-04-28 15:34 | 50.20947 | 12.54977 | 34193 ft | 435 kts | 304° |
| 2026-04-28 15:35 | 50.24588 | 12.47482 | 34179 ft | 435 kts | 304° |
| 2026-04-28 15:35 | 50.30083 | 12.36132 | 34196 ft | 438 kts | 304° |
| 2026-04-28 15:36 | 50.33802 | 12.28532 | 34207 ft | 438 kts | 305° |
| 2026-04-28 15:36 | 50.37506 | 12.20984 | 34209 ft | 438 kts | 305° |
| 2026-04-28 15:37 | 50.41198 | 12.13426 | 34208 ft | 438 kts | 304° |
| 2026-04-28 15:37 | 50.44905 | 12.05802 | 34217 ft | 439 kts | 304° |
| 2026-04-28 15:38 | 50.48593 | 11.98192 | 34217 ft | 439 kts | 304° |
| 2026-04-28 15:38 | 50.52279 | 11.90565 | 34218 ft | 439 kts | 304° |
| 2026-04-28 15:39 | 50.55961 | 11.82923 | 34227 ft | 439 kts | 304° |
| 2026-04-28 15:39 | 50.59643 | 11.75260 | 34228 ft | 439 kts | 304° |
| 2026-04-28 15:40 | 50.63332 | 11.67560 | 34239 ft | 440 kts | 304° |
| 2026-04-28 15:40 | 50.67002 | 11.59873 | 34242 ft | 442 kts | 304° |
| 2026-04-28 15:41 | 50.70700 | 11.52106 | 34226 ft | 442 kts | 304° |
| 2026-04-28 15:41 | 50.74379 | 11.44359 | 34223 ft | 442 kts | 304° |
| 2026-04-28 15:42 | 50.78049 | 11.36608 | 34252 ft | 441 kts | 304° |
| 2026-04-28 15:42 | 50.81749 | 11.28767 | 34251 ft | 445 kts | 304° |
| 2026-04-28 15:43 | 50.85450 | 11.20902 | 34247 ft | 447 kts | 304° |
| 2026-04-28 15:43 | 50.89153 | 11.13009 | 34227 ft | 447 kts | 304° |
| 2026-04-28 15:44 | 50.92855 | 11.05096 | 34228 ft | 447 kts | 304° |
| 2026-04-28 15:44 | 50.96564 | 10.97142 | 34248 ft | 447 kts | 304° |
| 2026-04-28 15:45 | 51.00252 | 10.89208 | 34236 ft | 447 kts | 304° |
| 2026-04-28 15:45 | 51.03947 | 10.81233 | 34239 ft | 450 kts | 304° |
| 2026-04-28 15:46 | 51.07646 | 10.73229 | 34239 ft | 450 kts | 304° |
| 2026-04-28 15:46 | 51.11342 | 10.65202 | 34235 ft | 453 kts | 305° |
| 2026-04-28 15:47 | 51.15076 | 10.57073 | 34260 ft | 455 kts | 305° |
| 2026-04-28 15:47 | 51.18803 | 10.48932 | 34239 ft | 455 kts | 305° |
| 2026-04-28 15:48 | 51.22545 | 10.40732 | 34239 ft | 457 kts | 305° |
| 2026-04-28 15:48 | 51.25930 | 10.32232 | 34239 ft | 456 kts | 296° |
| 2026-04-28 15:49 | 51.28763 | 10.23133 | 34244 ft | 456 kts | 296° |
| 2026-04-28 15:49 | 51.31535 | 10.14060 | 34239 ft | 456 kts | 295° |
| 2026-04-28 15:50 | 51.34319 | 10.04888 | 34231 ft | 456 kts | 295° |
| 2026-04-28 15:50 | 51.37088 | 9.95729 | 34230 ft | 459 kts | 295° |
| 2026-04-28 15:51 | 51.39856 | 9.86532 | 34242 ft | 460 kts | 296° |
| 2026-04-28 15:51 | 51.42638 | 9.77254 | 34234 ft | 465 kts | 296° |
| 2026-04-28 15:52 | 51.45439 | 9.67877 | 34237 ft | 466 kts | 296° |
| 2026-04-28 15:52 | 51.48224 | 9.58516 | 34231 ft | 466 kts | 296° |
| 2026-04-28 15:53 | 51.51026 | 9.49063 | 34238 ft | 468 kts | 296° |
| 2026-04-28 15:53 | 51.53798 | 9.39669 | 34239 ft | 468 kts | 295° |
| 2026-04-28 15:54 | 51.56584 | 9.30197 | 34238 ft | 468 kts | 295° |
| 2026-04-28 15:54 | 51.59363 | 9.20708 | 34235 ft | 468 kts | 295° |
| 2026-04-28 15:55 | 51.62124 | 9.11242 | 34233 ft | 468 kts | 295° |
| 2026-04-28 15:55 | 51.64875 | 9.01773 | 34235 ft | 468 kts | 295° |
| 2026-04-28 15:56 | 51.67621 | 8.92284 | 34238 ft | 468 kts | 295° |
| 2026-04-28 15:56 | 51.70356 | 8.82796 | 34238 ft | 468 kts | 295° |
| 2026-04-28 15:57 | 51.73099 | 8.73237 | 34225 ft | 470 kts | 296° |
| 2026-04-28 15:57 | 51.75796 | 8.63806 | 34238 ft | 476 kts | 296° |
| 2026-04-28 15:58 | 51.78162 | 8.55501 | 34237 ft | 476 kts | 296° |
| 2026-04-28 15:58 | 51.80912 | 8.45809 | 34238 ft | 474 kts | 296° |
| 2026-04-28 15:59 | 51.83185 | 8.37771 | 34238 ft | 475 kts | 296° |
| 2026-04-28 15:59 | 51.86395 | 8.26366 | 34235 ft | 477 kts | 296° |
| 2026-04-28 16:00 | 51.89146 | 8.16550 | 34245 ft | 480 kts | 296° |
| 2026-04-28 16:00 | 51.91888 | 8.06726 | 34250 ft | 480 kts | 296° |
| 2026-04-28 16:01 | 51.94621 | 7.96890 | 34242 ft | 479 kts | 296° |
| 2026-04-28 16:01 | 51.97358 | 7.87002 | 34242 ft | 480 kts | 296° |
| 2026-04-28 16:02 | 52.00070 | 7.77164 | 34244 ft | 482 kts | 296° |
| 2026-04-28 16:02 | 52.02819 | 7.67142 | 34244 ft | 484 kts | 296° |
| 2026-04-28 16:03 | 52.05548 | 7.57156 | 34264 ft | 488 kts | 297° |
| 2026-04-28 16:03 | 52.08317 | 7.46978 | 34244 ft | 491 kts | 296° |
| 2026-04-28 16:04 | 52.09673 | 7.41973 | 33750 ft | 488 kts | 296° |
| 2026-04-28 16:04 | 52.11045 | 7.36903 | 32796 ft | 489 kts | 296° |
| 2026-04-28 16:04 | 52.12419 | 7.31815 | 31946 ft | 489 kts | 296° |
| 2026-04-28 16:04 | 52.13774 | 7.26783 | 31098 ft | 488 kts | 296° |
| 2026-04-28 16:05 | 52.15139 | 7.21705 | 30199 ft | 488 kts | 296° |
| 2026-04-28 16:05 | 52.16485 | 7.16685 | 29222 ft | 488 kts | 296° |
| 2026-04-28 16:05 | 52.17841 | 7.11613 | 28537 ft | 481 kts | 295° |
| 2026-04-28 16:05 | 52.19171 | 7.06627 | 27928 ft | 474 kts | 296° |
| 2026-04-28 16:06 | 52.20465 | 7.01775 | 27344 ft | 468 kts | 296° |
| 2026-04-28 16:06 | 52.21965 | 6.97136 | 26796 ft | 456 kts | 306° |
| 2026-04-28 16:06 | 52.23860 | 6.93002 | 26237 ft | 448 kts | 311° |
| 2026-04-28 16:06 | 52.25796 | 6.89130 | 25658 ft | 442 kts | 312° |
| 2026-04-28 16:07 | 52.27747 | 6.85253 | 25088 ft | 439 kts | 312° |
| 2026-04-28 16:07 | 52.29691 | 6.81377 | 24512 ft | 438 kts | 312° |
| 2026-04-28 16:07 | 52.33505 | 6.73736 | 23292 ft | 431 kts | 312° |
| 2026-04-28 16:08 | 52.35398 | 6.69937 | 22708 ft | 425 kts | 312° |
| 2026-04-28 16:08 | 52.37227 | 6.66249 | 22146 ft | 419 kts | 312° |
| 2026-04-28 16:08 | 52.39055 | 6.62557 | 21587 ft | 414 kts | 312° |
| 2026-04-28 16:09 | 52.42656 | 6.55273 | 20457 ft | 410 kts | 312° |
| 2026-04-28 16:09 | 52.44442 | 6.51648 | 19889 ft | 407 kts | 311° |
| 2026-04-28 16:09 | 52.46025 | 6.47830 | 19324 ft | 407 kts | 300° |
| 2026-04-28 16:10 | 52.47330 | 6.38805 | 18114 ft | 410 kts | 276° |
| 2026-04-28 16:10 | 52.47547 | 6.34163 | 17486 ft | 406 kts | 276° |
| 2026-04-28 16:10 | 52.47970 | 6.25024 | 16305 ft | 399 kts | 276° |
| 2026-04-28 16:11 | 52.48399 | 6.16007 | 15118 ft | 394 kts | 277° |
| 2026-04-28 16:11 | 52.48825 | 6.07115 | 13926 ft | 391 kts | 276° |
| 2026-04-28 16:12 | 52.49247 | 5.98281 | 12742 ft | 383 kts | 276° |
| 2026-04-28 16:12 | 52.49450 | 5.93961 | 12176 ft | 380 kts | 276° |
| 2026-04-28 16:13 | 52.49830 | 5.85696 | 11846 ft | 347 kts | 275° |
| 2026-04-28 16:13 | 52.50006 | 5.81830 | 11711 ft | 331 kts | 275° |
| 2026-04-28 16:13 | 52.50334 | 5.74640 | 11442 ft | 303 kts | 275° |
| 2026-04-28 16:14 | 52.50638 | 5.67870 | 11201 ft | 297 kts | 275° |
| 2026-04-28 16:14 | 52.50950 | 5.60893 | 10839 ft | 312 kts | 275° |
| 2026-04-28 16:15 | 52.50519 | 5.53907 | 10001 ft | 309 kts | 251° |
| 2026-04-28 16:15 | 52.50050 | 5.51701 | 9839 ft | 306 kts | 250° |
| 2026-04-28 16:15 | 52.49328 | 5.48422 | 9711 ft | 303 kts | 249° |
| 2026-04-28 16:16 | 52.47890 | 5.41848 | 9462 ft | 307 kts | 249° |
| 2026-04-28 16:16 | 52.47169 | 5.38531 | 9350 ft | 307 kts | 250° |
| 2026-04-28 16:17 | 52.45761 | 5.32044 | 9108 ft | 301 kts | 249° |
| 2026-04-28 16:17 | 52.45053 | 5.28786 | 8985 ft | 303 kts | 249° |
| 2026-04-28 16:17 | 52.44352 | 5.25561 | 8864 ft | 303 kts | 249° |
| 2026-04-28 16:17 | 52.43641 | 5.22298 | 8746 ft | 305 kts | 249° |
| 2026-04-28 16:18 | 52.42927 | 5.19026 | 8627 ft | 302 kts | 249° |
| 2026-04-28 16:18 | 52.42229 | 5.15828 | 8511 ft | 300 kts | 249° |
| 2026-04-28 16:18 | 52.41525 | 5.12611 | 8391 ft | 298 kts | 249° |
| 2026-04-28 16:18 | 52.40818 | 5.09387 | 8264 ft | 299 kts | 249° |
| 2026-04-28 16:19 | 52.40120 | 5.06202 | 8138 ft | 301 kts | 249° |
| 2026-04-28 16:19 | 52.39411 | 5.02980 | 8026 ft | 299 kts | 249° |
| 2026-04-28 16:19 | 52.38706 | 4.99777 | 7904 ft | 298 kts | 249° |
| 2026-04-28 16:19 | 52.38001 | 4.96580 | 7780 ft | 296 kts | 249° |
| 2026-04-28 16:20 | 52.37307 | 4.93436 | 7672 ft | 294 kts | 249° |
| 2026-04-28 16:20 | 52.36625 | 4.90350 | 7552 ft | 281 kts | 249° |
| 2026-04-28 16:20 | 52.35976 | 4.87413 | 7437 ft | 268 kts | 249° |
| 2026-04-28 16:20 | 52.35347 | 4.84582 | 7339 ft | 262 kts | 249° |
| 2026-04-28 16:21 | 52.34724 | 4.81780 | 7225 ft | 262 kts | 249° |
| 2026-04-28 16:21 | 52.34103 | 4.78987 | 7097 ft | 260 kts | 249° |
| 2026-04-28 16:21 | 52.33522 | 4.76224 | 7003 ft | 260 kts | 254° |
| 2026-04-28 16:21 | 52.33435 | 4.73268 | 6990 ft | 260 kts | 280° |
| 2026-04-28 16:22 | 52.33796 | 4.70375 | 6784 ft | 260 kts | 285° |
| 2026-04-28 16:22 | 52.34220 | 4.67508 | 6370 ft | 262 kts | 285° |
| 2026-04-28 16:22 | 52.34504 | 4.64568 | 6049 ft | 261 kts | 269° |
| 2026-04-28 16:22 | 52.34025 | 4.61749 | 5801 ft | 256 kts | 239° |
| 2026-04-28 16:23 | 52.33118 | 4.59286 | 5528 ft | 254 kts | 234° |
| 2026-04-28 16:23 | 52.32156 | 4.56854 | 5293 ft | 254 kts | 234° |
| 2026-04-28 16:23 | 52.31209 | 4.54453 | 5035 ft | 252 kts | 235° |
| 2026-04-28 16:23 | 52.30262 | 4.52030 | 4760 ft | 252 kts | 234° |
| 2026-04-28 16:24 | 52.29314 | 4.49597 | 4508 ft | 252 kts | 235° |
| 2026-04-28 16:24 | 52.28373 | 4.47165 | 4266 ft | 253 kts | 235° |
| 2026-04-28 16:24 | 52.27447 | 4.44765 | 4033 ft | 253 kts | 235° |
| 2026-04-28 16:24 | 52.26498 | 4.42327 | 3807 ft | 253 kts | 235° |
| 2026-04-28 16:25 | 52.25555 | 4.39925 | 3582 ft | 254 kts | 235° |
| 2026-04-28 16:25 | 52.24588 | 4.37482 | 3347 ft | 255 kts | 236° |
| 2026-04-28 16:25 | 52.23569 | 4.35142 | 3104 ft | 254 kts | 225° |
| 2026-04-28 16:25 | 52.22119 | 4.33622 | 3018 ft | 245 kts | 191° |
| 2026-04-28 16:26 | 52.20485 | 4.33487 | 3002 ft | 230 kts | 159° |
| 2026-04-28 16:26 | 52.19141 | 4.34669 | 2998 ft | 216 kts | 128° |
| 2026-04-28 16:26 | 52.18439 | 4.36715 | 3015 ft | 205 kts | 101° |
| 2026-04-28 16:26 | 52.18245 | 4.38983 | 2996 ft | 203 kts | 88° |
| 2026-04-28 16:27 | 52.18234 | 4.41286 | 2998 ft | 203 kts | 87° |
| 2026-04-28 16:27 | 52.18321 | 4.43580 | 2995 ft | 203 kts | 79° |
| 2026-04-28 16:27 | 52.19081 | 4.47968 | 2996 ft | 203 kts | 63° |
| 2026-04-28 16:28 | 52.19755 | 4.49939 | 2991 ft | 191 kts | 59° |
| 2026-04-28 16:28 | 52.20433 | 4.51731 | 3020 ft | 182 kts | 59° |
| 2026-04-28 16:28 | 52.21098 | 4.53453 | 2910 ft | 174 kts | 58° |
| 2026-04-28 16:28 | 52.21711 | 4.55044 | 2703 ft | 160 kts | 58° |
| 2026-04-28 16:29 | 52.22879 | 4.58071 | 2239 ft | 158 kts | 59° |
| 2026-04-28 16:29 | 52.24050 | 4.61115 | 1807 ft | 157 kts | 58° |
| 2026-04-28 16:30 | 52.24630 | 4.62615 | 1584 ft | 154 kts | 58° |
| 2026-04-28 16:30 | 52.25175 | 4.64028 | 1375 ft | 140 kts | 58° |
| 2026-04-28 16:30 | 52.25665 | 4.65300 | 1199 ft | 127 kts | 58° |
| 2026-04-28 16:30 | 52.26114 | 4.66459 | 1034 ft | 115 kts | 58° |
| 2026-04-28 16:31 | 52.26527 | 4.67534 | 892 ft | 111 kts | 58° |
| 2026-04-28 16:31 | 52.26940 | 4.68611 | 740 ft | 112 kts | 58° |
| 2026-04-28 16:31 | 52.27366 | 4.69717 | 624 ft | 118 kts | 57° |
| 2026-04-28 16:31 | 52.27815 | 4.70867 | 426 ft | 121 kts | 57° |
| 2026-04-28 16:32 | 52.28262 | 4.72035 | 262 ft | 120 kts | 57° |
| 2026-04-28 16:32 | 52.29156 | 4.74364 | 8 ft | 118 kts | 57° |
| 2026-04-28 16:32 | 52.29538 | 4.75356 | 4 ft | 87 kts | 58° |
| 2026-04-28 16:33 | 52.29810 | 4.76066 | 2 ft | 59 kts | 58° |
| 2026-04-28 16:33 | 52.29923 | 4.76358 | 2 ft | 32 kts | 57° |
| 2026-04-28 16:33 | 52.30092 | 4.76594 | 4 ft | 15 kts | 27° |
| 2026-04-28 16:33 | 52.30141 | 4.76636 | 5 ft | 0 kts | 28° |
| 2026-04-28 16:34 | 52.30167 | 4.76659 | 5 ft | 9 kts | 28° |
| 2026-04-28 16:34 | 52.30233 | 4.76717 | 5 ft | 12 kts | 27° |
| 2026-04-28 16:34 | 52.30299 | 4.76795 | 5 ft | 12 kts | 50° |
| 2026-04-28 16:34 | 52.30351 | 4.76923 | 5 ft | 15 kts | 57° |
| 2026-04-28 16:35 | 52.30410 | 4.77078 | 5 ft | 17 kts | 58° |
| 2026-04-28 16:35 | 52.30476 | 4.77249 | 5 ft | 19 kts | 58° |
| 2026-04-28 16:35 | 52.30547 | 4.77436 | 5 ft | 17 kts | 58° |
| 2026-04-28 16:35 | 52.30620 | 4.77566 | 5 ft | 17 kts | 26° |
| 2026-04-28 16:36 | 52.30742 | 4.77591 | 5 ft | 19 kts | 4° |
| 2026-04-28 16:36 | 52.30881 | 4.77608 | 5 ft | 20 kts | 4° |
| 2026-04-28 16:36 | 52.31027 | 4.77621 | 5 ft | 22 kts | 2° |
| 2026-04-28 16:36 | 52.31189 | 4.77635 | 5 ft | 24 kts | 3° |
| 2026-04-28 16:37 | 52.31350 | 4.77651 | 5 ft | 22 kts | 2° |
| 2026-04-28 16:37 | 52.31487 | 4.77592 | 5 ft | 20 kts | 320° |
| 2026-04-28 16:37 | 52.31570 | 4.77411 | 5 ft | 20 kts | 283° |
| 2026-04-28 16:38 | 52.31562 | 4.76898 | 5 ft | 22 kts | 267° |
| 2026-04-28 16:38 | 52.31553 | 4.76645 | 5 ft | 24 kts | 266° |
| 2026-04-28 16:38 | 52.31543 | 4.76387 | 5 ft | 24 kts | 266° |
| 2026-04-28 16:38 | 52.31534 | 4.76101 | 5 ft | 22 kts | 266° |
| 2026-04-28 16:39 | 52.31506 | 4.75938 | 5 ft | 13 kts | 214° |
| 2026-04-28 16:39 | 52.31408 | 4.75927 | 5 ft | 12 kts | 177° |
| 2026-04-28 16:39 | 52.31314 | 4.75934 | 5 ft | 14 kts | 176° |
| 2026-04-28 16:39 | 52.31251 | 4.75929 | 5 ft | 6 kts | 211° |
| 2026-04-28 16:40 | 52.31236 | 4.75864 | 5 ft | 4 kts | 261° |
| 2026-04-28 16:40 | 52.31235 | 4.75826 | 5 ft | 3 kts | 267° |
| 2026-04-28 16:40 | 52.31234 | 4.75813 | 5 ft | 0 kts | 267° |